Daglege Rapportar

Klikk her for oppdatering!


Detaljar i dag

16/9/19
Time         Wind Dir   Wind Spd  Wind Gust   Humidity       Temp  Raw Barom   Tot Rain Temp Out H Temp Out L  DailyRain   HourRain
                            mps        mps          %         C         mb         mm         C         C         mm         mm
0:00              329          5          8         73        9.1    1009.50     664.60        9.1        9.1      31.80       0.00
1:00              355          4         10         79        9.1    1009.94     664.60        9.7        9.1       0.00       0.00
2:00              315          1          6         80        8.1    1010.45     664.80        9.7        8.1       0.20       0.20
3:00                5          2          8         83        8.1    1010.75     665.20        9.7        8.0       0.60       0.60
4:00              360          2          4         85        7.1    1011.16     666.20        9.7        6.9       1.60       1.40
5:00              355          4          7         81        7.8    1011.53     666.40        9.7        6.8       1.80       0.20
6:00              328          2          6         81        7.3    1011.63     666.80        9.7        6.8       2.20       0.40
7:00              348          4          6         77        7.5    1011.83     667.00        9.7        6.8       2.40       0.40
8:00              350          0          5         77        8.3    1011.60     667.00        9.7        6.8       2.40       0.00
9:00              300          1          6         79        8.6    1012.20     667.00        9.7        6.8       2.40       0.00
10:00             319          2          7         79        8.4    1012.44     667.00        9.7        6.8       2.40       0.00
11:00             317          2          5         77        9.3    1012.37     667.00        9.7        6.8       2.40       0.00
12:00              36          0          5         70       10.9    1012.17     667.00       11.3        6.8       2.40       0.00

 


Detaljar i gr

15/9/19
Time         Wind Dir   Wind Spd  Wind Gust   Humidity       Temp  Raw Barom   Tot Rain Temp Out H Temp Out L  DailyRain   HourRain
                            mps        mps          %         C         mb         mm         C         C         mm         mm
0:00               13          1          4         89       10.5    1004.70     632.80       10.5       10.5       0.00       0.60
1:00                5          0          4         89       10.2    1003.59     632.80       10.6        9.9       0.00       0.00
2:00              292          2          6         77       11.1    1002.64     632.80       11.1        9.7       0.00       0.00
3:00              355          2         12         76       10.2    1001.63     633.00       11.4        9.7       0.20       0.20
4:00              286          4          8         72        9.9    1001.73     634.60       11.4        8.8       1.80       1.60
5:00              360          2          8         82        8.4    1001.80     635.20       11.4        8.4       2.40       1.00
6:00              333          4          8         77        9.4    1000.51     635.20       11.4        8.0       2.40       0.20
7:00              130          2          8         83        8.3    1000.31     637.20       11.4        8.0       4.40       2.00
8:00              315          5          6         81        8.5     999.36     638.00       11.4        7.6       5.20       1.80
9:00              274          3          6         84        8.0     998.65     639.40       11.4        7.6       6.60       2.00
10:00             261          3          6         85        8.2     998.08     641.00       11.4        7.6       8.20       2.00
11:00              49          2          6         85        8.4     996.96     642.20       11.4        7.6       9.40       1.80
12:00             322          1          4         90        8.7     996.90     644.20       11.4        7.6      11.40       2.40
13:00             344          2          8         85       10.7     997.00     644.60       11.4        7.6      11.80       1.40
13:59             309          5          9         83       11.5     997.74     645.20       11.5        7.6      12.40       0.60
15:00             349          3          7         82       11.5     998.99     645.80       11.7        7.6      13.00       0.80
16:00             347          2          7         85       10.8     999.70     648.20       11.7        7.6      15.40       2.80
17:00              12          1          8         85       10.6    1000.75     651.60       11.7        7.6      18.80       5.20
18:00              26          5         13         86       10.3    1001.02     654.00       11.7        7.6      21.20       3.40
19:00             329          2         13         88       10.3    1002.30     659.00       11.7        7.6      26.20       6.60
20:00             307          4         10         86       10.4    1003.86     661.60       11.7        7.6      28.80       5.00
21:00             336          4         11         86        9.9    1005.24     663.80       11.7        7.6      31.00       3.00
22:00              30          5          9         82        9.8    1006.76     664.40       11.7        7.6      31.60       1.80
23:00             319          5         11         77        9.8    1008.25     664.60       11.7        7.6      31.80       0.40